Time;durP1;ratioP1;P1;durP2;ratioP2;P2;SDS_P1;SDS_P2;PMS_P1;PMS_P2;Temp;Humidity;BMP_temperature;BMP_pressure;BME280_temperature;BME280_humidity;BME280_pressure;Samples;Min_cycle;Max_cycle;Signal;HPM_P1;HPM_P2
2023/07/20 07:11:25;;;;;;;;;;;;;;;32.59;49.90;98263.63;103757;1280;616804;-78
2023/07/20 07:13:52;;;;;;;3.40;3.10;;;;;;;32.58;50.27;98251.89;104931;1269;105634;-77
2023/07/20 07:16:21;;;;;;;4.50;3.50;;;;;;;32.68;49.99;98250.71;105267;1264;59989;-75
2023/07/20 07:18:50;;;;;;;5.00;3.60;;;;;;;32.79;50.06;98247.30;105106;1263;72237;-76
2023/07/20 07:21:16;;;;;;;3.50;2.90;;;;;;;32.94;49.11;98245.64;105098;1264;67792;-68
2023/07/20 07:23:45;;;;;;;4.60;3.50;;;;;;;33.13;48.42;98245.71;105066;1264;72454;-77
2023/07/20 07:26:11;;;;;;;3.40;3.00;;;;;;;33.41;47.93;98245.46;105052;1267;59679;-77
2023/07/20 07:28:38;;;;;;;3.80;3.00;;;;;;;33.69;46.76;98242.62;105036;1264;60265;-75
2023/07/20 07:31:05;;;;;;;5.20;2.90;;;;;;;33.83;45.70;98239.84;105007;1264;72106;-75
2023/07/20 07:33:33;;;;;;;8.30;3.50;;;;;;;33.78;46.57;98238.08;105048;1264;67673;-76
2023/07/20 07:35:59;;;;;;;7.20;4.20;;;;;;;33.54;47.66;98243.11;105128;1264;72802;-77
2023/07/20 07:38:29;;;;;;;6.40;3.30;;;;;;;33.11;48.46;98236.59;105273;1263;60662;-77
2023/07/20 07:41:16;;;;;;;4.30;3.20;;;;;;;32.64;49.24;98241.55;105528;1260;59503;-77
2023/07/20 07:43:43;;;;;;;5.50;4.20;;;;;;;32.39;50.88;98244.67;105349;1257;72924;-78
2023/07/20 07:46:10;;;;;;;5.40;4.20;;;;;;;32.11;51.77;98250.95;105443;1258;66661;-74
2023/07/20 07:48:37;;;;;;;5.80;3.50;;;;;;;31.93;51.84;98245.81;105415;1257;72752;-75
2023/07/20 07:51:04;;;;;;;5.40;3.40;;;;;;;31.87;51.90;98246.45;105490;1257;60427;-78
2023/07/20 07:53:32;;;;;;;6.00;4.50;;;;;;;31.90;52.13;98248.36;105422;1256;60064;-76
2023/07/20 07:56:00;;;;;;;7.70;4.00;;;;;;;31.74;52.86;98246.94;105602;1257;71142;-77
2023/07/20 07:58:27;;;;;;;6.30;3.80;;;;;;;31.42;53.24;98244.02;105533;1257;67716;-74
2023/07/20 08:00:53;;;;;;;4.90;3.90;;;;;;;31.17;53.48;98243.75;105493;1260;59701;-74
2023/07/20 08:03:21;;;;;;;4.00;3.40;;;;;;;30.86;54.62;98244.93;105904;1254;60144;-76
2023/07/20 08:05:48;;;;;;;6.20;4.10;;;;;;;30.57;55.91;98249.88;105852;1254;60212;-76
2023/07/20 08:08:15;;;;;;;6.00;4.20;;;;;;;30.40;57.89;98245.63;105972;1256;72841;-74
2023/07/20 08:10:44;;;;;;;8.30;4.60;;;;;;;30.32;59.65;98245.59;105819;1253;67810;-75
2023/07/20 08:13:11;;;;;;;5.70;5.00;;;;;;;30.34;62.13;98242.95;105789;1254;72002;-73
2023/07/20 08:15:37;;;;;;;7.70;3.50;;;;;;;30.42;62.43;98241.03;105706;1253;60419;-73
2023/07/20 08:18:05;;;;;;;4.40;3.40;;;;;;;30.74;61.38;98234.96;105727;1254;59987;-74
2023/07/20 08:20:35;;;;;;;4.80;4.20;;;;;;;31.19;60.77;98238.79;105840;1252;73479;-73
2023/07/20 08:23:02;;;;;;;7.80;4.30;;;;;;;31.37;58.99;98230.46;105886;1254;67785;-74
2023/07/20 08:25:29;;;;;;;5.10;3.60;;;;;;;31.62;58.87;98234.56;105682;1253;72448;-73
2023/07/20 08:27:56;;;;;;;6.40;3.20;;;;;;;31.96;56.27;98225.42;105811;1254;60772;-73
2023/07/20 08:30:25;;;;;;;5.70;3.40;;;;;;;32.23;55.84;98224.42;105745;1256;59553;-73
2023/07/20 08:32:51;;;;;;;5.30;3.40;;;;;;;32.66;54.46;98225.64;105781;1255;73123;-73
2023/07/20 08:35:18;;;;;;;7.20;3.60;;;;;;;33.15;52.54;98222.40;105815;1254;68119;-73
2023/07/20 08:37:49;;;;;;;4.50;3.20;;;;;;;33.65;50.35;98219.23;105790;1254;71652;-74
2023/07/20 08:40:16;;;;;;;6.00;3.40;;;;;;;34.02;48.56;98215.23;105721;1254;60348;-73
2023/07/20 08:42:43;;;;;;;3.30;3.00;;;;;;;34.18;46.35;98212.46;105730;1253;60259;-73
2023/07/20 08:45:11;;;;;;;11.70;3.60;;;;;;;34.24;44.83;98211.73;105678;1257;73152;-73
2023/07/20 08:47:38;;;;;;;4.50;2.90;;;;;;;34.18;45.02;98208.73;105735;1254;68235;-72
2023/07/20 08:50:06;;;;;;;3.40;3.10;;;;;;;34.08;44.27;98208.58;105641;1254;70482;-73
2023/07/20 08:52:34;;;;;;;6.80;2.90;;;;;;;34.09;43.58;98202.92;105729;1254;60721;-72
2023/07/20 08:55:03;;;;;;;2.80;2.50;;;;;;;34.21;43.32;98204.80;105731;1254;60119;-73
2023/07/20 08:57:32;;;;;;;4.60;2.80;;;;;;;34.22;42.75;98201.58;105699;1252;72998;-73
2023/07/20 09:00:12;;;;;;;3.60;2.80;;;;;;;34.30;41.90;98198.65;105787;1254;67745;-73
2023/07/20 09:02:42;;;;;;;6.80;2.90;;;;;;;34.43;40.52;98196.91;105756;1252;72703;-74
2023/07/20 09:05:10;;;;;;;5.50;2.80;;;;;;;34.44;40.33;98196.54;105665;1257;60247;-74
2023/07/20 09:07:39;;;;;;;4.40;2.60;;;;;;;34.38;39.49;98196.64;105725;1254;60392;-74
2023/07/20 09:10:07;;;;;;;4.10;2.80;;;;;;;34.12;39.23;98198.90;105819;1256;72821;-73
2023/07/20 09:12:41;;;;;;;3.60;2.80;;;;;;;33.75;38.87;98202.90;105802;1256;67998;-74
2023/07/20 09:15:09;;;;;;;3.80;2.80;;;;;;;33.17;39.83;98199.32;105957;1257;72624;-74
2023/07/20 09:17:37;;;;;;;3.30;2.70;;;;;;;32.84;41.37;98199.22;105797;1253;60447;-74
2023/07/20 09:20:10;;;;;;;2.90;2.70;;;;;;;32.78;42.61;98191.95;105906;1253;60095;-74
2023/07/20 09:22:41;;;;;;;5.00;2.60;;;;;;;32.99;42.85;98182.01;105886;1254;72426;-74
2023/07/20 09:25:17;;;;;;;6.40;3.10;;;;;;;33.32;42.41;98178.77;105896;1253;68019;-75
2023/07/20 09:27:46;;;;;;;5.40;2.80;;;;;;;33.65;41.69;98173.73;105765;1253;71745;-74
2023/07/20 09:30:14;;;;;;;6.30;2.90;;;;;;;33.66;41.26;98157.85;105920;1254;60130;-74
2023/07/20 09:32:48;;;;;;;3.60;2.20;;;;;;;33.31;41.66;98158.73;105786;1254;60346;-72
2023/07/20 09:35:21;;;;;;;3.20;2.80;;;;;;;32.83;42.00;98160.52;105735;1252;72841;-74
2023/07/20 09:37:54;;;;;;;3.70;2.60;;;;;;;32.24;42.63;98159.85;105800;1254;67825;-73
2023/07/20 09:40:41;;;;;;;4.60;2.80;;;;;;;32.08;44.03;98163.52;105769;1254;72668;-73
2023/07/20 09:43:11;;;;;;;2.70;2.50;;;;;;;32.44;44.42;98166.88;105776;1257;59612;-73
2023/07/20 09:45:41;;;;;;;4.10;2.70;;;;;;;33.10;43.36;98167.63;105762;1256;60285;-74
2023/07/20 09:48:11;;;;;;;4.10;2.80;;;;;;;33.89;41.46;98162.95;105777;1254;72964;-73
2023/07/20 09:50:42;;;;;;;3.50;2.50;;;;;;;34.57;40.07;98160.27;105783;1253;68398;-73
2023/07/20 09:53:15;;;;;;;2.80;2.40;;;;;;;34.90;38.67;98152.04;105817;1256;72732;-73
2023/07/20 09:55:47;;;;;;;4.60;2.40;;;;;;;34.88;38.86;98155.23;105783;1254;60148;-74
2023/07/20 09:58:14;;;;;;;3.00;2.70;;;;;;;34.52;38.18;98158.89;105780;1254;60014;-74
2023/07/20 10:00:44;;;;;;;2.40;2.20;;;;;;;33.88;38.02;98147.80;105777;1254;72947;-73
2023/07/20 10:03:18;;;;;;;5.70;2.80;;;;;;;33.37;37.85;98145.66;105792;1254;66896;-73
2023/07/20 10:05:52;;;;;;;5.50;2.40;;;;;;;32.87;38.29;98145.27;105780;1255;72635;-72
2023/07/20 10:08:19;;;;;;;4.20;2.90;;;;;;;32.26;39.57;98141.89;105764;1253;59621;-73
2023/07/20 10:10:49;;;;;;;3.50;3.00;;;;;;;31.65;41.18;98126.08;105760;1257;59519;-73
2023/07/20 10:13:21;;;;;;;3.00;2.40;;;;;;;31.32;42.27;98119.50;105746;1253;72096;-73
2023/07/20 10:16:03;;;;;;;3.00;2.70;;;;;;;31.25;43.12;98116.67;105813;1254;68367;-73
2023/07/20 10:18:42;;;;;;;3.90;2.80;;;;;;;31.21;43.68;98108.36;105754;1254;72640;-73
2023/07/20 10:21:08;;;;;;;3.80;2.50;;;;;;;31.07;44.68;98104.40;105715;1253;60493;-73
2023/07/20 10:23:38;;;;;;;3.90;2.90;;;;;;;30.73;45.66;98115.85;105662;1254;60068;-74
2023/07/20 10:26:05;;;;;;;3.20;2.90;;;;;;;30.25;47.36;98124.95;105684;1252;74272;-73
2023/07/20 10:28:32;;;;;;;3.50;2.90;;;;;;;29.69;48.90;98128.46;105834;1254;67854;-74
2023/07/20 10:30:59;;;;;;;2.80;2.60;;;;;;;29.11;51.10;98125.40;105731;1253;74062;-74
2023/07/20 10:33:26;;;;;;;4.60;3.40;;;;;;;28.54;53.65;98132.64;105779;1253;60982;-74
2023/07/20 10:35:57;;;;;;;4.10;3.20;;;;;;;28.06;56.79;98138.70;105664;1254;60085;-74
2023/07/20 10:38:55;;;;;;;4.40;3.20;;;;;;;27.69;60.10;98143.63;105792;1257;73165;-74
2023/07/20 10:41:28;;;;;;;7.40;3.40;;;;;;;27.37;63.83;98148.29;105636;1254;67113;-75
2023/07/20 10:44:03;;;;;;;12.90;3.90;;;;;;;27.13;68.18;98167.17;105710;1257;72665;-74
2023/07/20 10:46:39;;;;;;;11.20;5.20;;;;;;;26.76;93.63;98183.00;105902;1254;59634;-74
2023/07/20 10:49:07;;;;;;;7.70;4.80;;;;;;;25.77;100.00;98231.84;105682;1253;61861;-74
2023/07/20 10:51:40;;;;;;;3.80;3.00;;;;;;;24.40;100.00;98217.05;105736;1257;73009;-73
2023/07/20 10:54:16;;;;;;;3.60;2.40;;;;;;;23.16;100.00;98258.61;105845;1254;67675;-73
2023/07/20 10:56:44;;;;;;;3.70;2.40;;;;;;;22.29;100.00;98303.33;105656;1259;72639;-73
2023/07/20 10:59:21;;;;;;;5.20;2.70;;;;;;;21.82;100.00;98324.14;105827;1254;60438;-73
2023/07/20 11:01:51;;;;;;;4.10;2.30;;;;;;;21.40;100.00;98332.36;105798;1254;60827;-73
2023/07/20 11:04:20;;;;;;;6.30;2.90;;;;;;;21.07;100.00;98318.56;105719;1253;71771;-74
2023/07/20 11:06:54;;;;;;;4.40;2.40;;;;;;;20.85;100.00;98319.64;105664;1254;67717;-72
2023/07/20 11:09:25;;;;;;;6.40;2.40;;;;;;;20.68;100.00;98315.09;105744;1257;72780;-75
2023/07/20 11:12:08;;;;;;;4.80;2.70;;;;;;;20.56;100.00;98324.22;105764;1254;62906;-78
2023/07/20 11:14:41;;;;;;;7.20;2.80;;;;;;;20.52;100.00;98329.59;105818;1254;60189;-72
2023/07/20 11:17:15;;;;;;;4.50;1.90;;;;;;;20.52;100.00;98334.84;105851;1252;72241;-73
2023/07/20 11:19:42;;;;;;;4.70;2.40;;;;;;;20.50;100.00;98338.65;105829;1255;67985;-76
2023/07/20 11:22:11;;;;;;;2.70;2.30;;;;;;;20.48;100.00;98348.41;105887;1257;72692;-78
2023/07/20 11:24:42;;;;;;;3.00;2.30;;;;;;;20.48;100.00;98350.95;105868;1254;60484;-74
2023/07/20 11:27:09;;;;;;;3.90;3.00;;;;;;;20.53;100.00;98355.64;105774;1254;60701;-73
2023/07/20 11:29:37;;;;;;;3.20;2.70;;;;;;;20.58;100.00;98361.45;105759;1256;73788;-74
2023/07/20 11:32:04;;;;;;;4.60;3.00;;;;;;;20.60;100.00;98358.48;105789;1254;67915;-74
2023/07/20 11:34:34;;;;;;;5.70;3.40;;;;;;;20.70;100.00;98362.44;105847;1254;72722;-71
2023/07/20 11:37:01;;;;;;;3.80;3.50;;;;;;;20.83;100.00;98367.27;105734;1257;61812;-73
2023/07/20 11:39:30;;;;;;;3.90;2.70;;;;;;;21.02;100.00;98371.30;105683;1254;60776;-72
2023/07/20 11:41:57;;;;;;;8.80;3.60;;;;;;;21.23;100.00;98376.02;105721;1257;60513;-73
2023/07/20 11:44:28;;;;;;;3.20;2.20;;;;;;;21.37;100.00;98376.92;105820;1254;67790;-74
2023/07/20 11:47:04;;;;;;;2.90;2.20;;;;;;;21.43;100.00;98382.36;105789;1254;72575;-75
2023/07/20 11:49:41;;;;;;;4.10;2.30;;;;;;;21.51;100.00;98386.33;105882;1257;60322;-72
2023/07/20 11:52:12;;;;;;;3.20;2.30;;;;;;;21.58;100.00;98384.56;105703;1259;60509;-73
2023/07/20 11:54:45;;;;;;;4.20;2.90;;;;;;;21.65;100.00;98376.73;105794;1255;73721;-73
2023/07/20 11:57:19;;;;;;;4.00;2.70;;;;;;;21.68;100.00;98377.87;105799;1257;67011;-72
2023/07/20 12:00:08;;;;;;;3.70;2.50;;;;;;;21.69;100.00;98379.50;105776;1257;72688;-72
2023/07/20 12:02:44;;;;;;;2.70;2.50;;;;;;;21.70;100.00;98370.45;105703;1254;60529;-72
2023/07/20 12:05:13;;;;;;;2.70;2.50;;;;;;;21.71;100.00;98365.37;105556;1254;60569;-73
2023/07/20 12:07:40;;;;;;;2.40;2.20;;;;;;;21.69;100.00;98360.92;105793;1257;73652;-74
2023/07/20 12:10:12;;;;;;;2.10;2.00;;;;;;;21.63;100.00;98361.29;105834;1255;67899;-75
2023/07/20 12:12:43;;;;;;;3.50;2.50;;;;;;;21.60;100.00;98362.09;105795;1257;71438;-73
2023/07/20 12:15:37;;;;;;;3.20;2.60;;;;;;;21.66;100.00;98364.94;105815;1256;61962;-72
2023/07/20 12:18:04;;;;;;;3.80;3.00;;;;;;;21.83;100.00;98361.70;105908;1254;60514;-75
2023/07/20 12:20:34;;;;;;;3.00;2.80;;;;;;;22.06;100.00;98350.69;105822;1257;73710;-74
2023/07/20 12:23:02;;;;;;;3.50;3.20;;;;;;;22.33;100.00;98348.08;105925;1257;68164;-73
2023/07/20 12:25:44;;;;;;;3.20;3.00;;;;;;;22.59;100.00;98337.02;105753;1257;72683;-73
2023/07/20 12:28:15;;;;;;;3.30;3.00;;;;;;;22.87;100.00;98336.75;105742;1254;60347;-74
2023/07/20 12:30:44;;;;;;;3.00;2.60;;;;;;;23.14;100.00;98336.48;105772;1254;60450;-74
2023/07/20 12:33:17;;;;;;;2.70;2.50;;;;;;;23.35;100.00;98332.05;106114;1252;73788;-74
2023/07/20 12:35:46;;;;;;;2.90;2.60;;;;;;;23.52;100.00;98324.54;105853;1254;67683;-74
2023/07/20 12:38:15;;;;;;;3.70;2.30;;;;;;;23.64;100.00;98324.06;105748;1257;72479;-74
2023/07/20 12:40:43;;;;;;;2.90;2.70;;;;;;;23.74;100.00;98323.73;105952;1256;60824;-75
2023/07/20 12:43:14;;;;;;;4.90;2.60;;;;;;;23.82;100.00;98324.11;105853;1257;60374;-73
2023/07/20 12:45:45;;;;;;;2.80;2.60;;;;;;;23.86;100.00;98319.45;105741;1257;73855;-73
2023/07/20 12:48:12;;;;;;;3.70;3.20;;;;;;;23.96;100.00;98323.77;105836;1257;67796;-75
2023/07/20 12:50:39;;;;;;;2.40;2.20;;;;;;;24.03;100.00;98322.14;105794;1255;72898;-72
2023/07/20 12:53:06;;;;;;;2.50;2.20;;;;;;;24.10;100.00;98326.50;105749;1254;60322;-74
2023/07/20 12:55:33;;;;;;;1.80;1.70;;;;;;;24.21;100.00;98325.05;105763;1254;60498;-73
2023/07/20 12:58:01;;;;;;;2.70;2.10;;;;;;;24.32;100.00;98322.17;105716;1257;73786;-74
2023/07/20 13:00:32;;;;;;;1.70;1.60;;;;;;;24.36;100.00;98323.05;105810;1254;67704;-73
2023/07/20 13:03:04;;;;;;;2.60;1.80;;;;;;;24.35;100.00;98327.30;105742;1256;72601;-74
2023/07/20 13:05:42;;;;;;;4.90;2.30;;;;;;;24.34;100.00;98325.52;105652;1253;60406;-72
2023/07/20 13:08:13;;;;;;;2.50;2.30;;;;;;;24.33;100.00;98320.75;105792;1254;60862;-73
2023/07/20 13:10:48;;;;;;;1.90;1.60;;;;;;;24.32;100.00;98320.77;105706;1252;73885;-73
2023/07/20 13:13:17;;;;;;;2.00;1.90;;;;;;;24.32;100.00;98323.04;105716;1254;69332;-73
2023/07/20 13:15:49;;;;;;;3.30;2.10;;;;;;;24.27;100.00;98324.50;105778;1254;72344;-73
2023/07/20 13:18:22;;;;;;;4.10;2.40;;;;;;;24.21;100.00;98326.73;105749;1256;60429;-74
2023/07/20 13:20:49;;;;;;;2.50;2.20;;;;;;;24.17;100.00;98324.05;105739;1254;60510;-74
2023/07/20 13:23:16;;;;;;;2.90;2.50;;;;;;;24.12;100.00;98324.54;105783;1257;73842;-73
2023/07/20 13:25:43;;;;;;;5.10;2.50;;;;;;;24.10;100.00;98324.27;105726;1255;68168;-73
2023/07/20 13:28:10;;;;;;;2.80;2.40;;;;;;;24.08;100.00;98322.11;105690;1256;72816;-74
2023/07/20 13:30:37;;;;;;;3.10;2.40;;;;;;;24.03;100.00;98318.05;105764;1253;61758;-74
2023/07/20 13:33:07;;;;;;;4.00;2.30;;;;;;;23.97;100.00;98318.93;105742;1254;60347;-73
2023/07/20 13:35:34;;;;;;;2.50;2.20;;;;;;;23.90;100.00;98317.95;105728;1256;73737;-74
2023/07/20 13:38:04;;;;;;;3.70;3.00;;;;;;;23.81;100.00;98316.39;105910;1255;67913;-73
2023/07/20 13:40:31;;;;;;;3.00;2.10;;;;;;;23.72;100.00;98312.44;105815;1255;72600;-74
2023/07/20 13:42:58;;;;;;;4.10;2.40;;;;;;;23.62;100.00;98314.31;105740;1253;60468;-74
2023/07/20 13:45:26;;;;;;;4.70;2.60;;;;;;;23.45;100.00;98308.13;106058;1254;60462;-73
2023/07/20 13:47:53;;;;;;;5.60;3.00;;;;;;;23.32;100.00;98303.61;106163;1257;73864;-73
2023/07/20 13:50:21;;;;;;;9.60;3.30;;;;;;;23.26;100.00;98302.77;105868;1257;67955;-74
2023/07/20 13:52:52;;;;;;;4.00;3.00;;;;;;;23.23;100.00;98301.88;105953;1255;72568;-74
2023/07/20 13:55:39;;;;;;;3.20;2.60;;;;;;;23.16;100.00;98300.99;105721;1254;60558;-74
2023/07/20 13:58:12;;;;;;;3.40;2.60;;;;;;;23.09;100.00;98304.34;105732;1254;61026;-74
2023/07/20 14:00:40;;;;;;;8.90;3.10;;;;;;;23.06;100.00;98308.05;105725;1256;73868;-74
2023/07/20 14:03:07;;;;;;;3.80;2.80;;;;;;;23.04;100.00;98306.09;105748;1257;67634;-74
2023/07/20 14:05:37;;;;;;;4.60;2.70;;;;;;;22.98;100.00;98303.14;105836;1254;72739;-74
2023/07/20 14:08:08;;;;;;;8.30;2.70;;;;;;;22.93;100.00;98308.41;105817;1252;60475;-74
2023/07/20 14:10:34;;;;;;;5.30;3.10;;;;;;;22.88;100.00;98316.90;105744;1254;60419;-74
2023/07/20 14:13:21;;;;;;;3.20;2.80;;;;;;;22.83;100.00;98312.10;105762;1254;74709;-73
2023/07/20 14:16:00;;;;;;;3.60;2.20;;;;;;;22.83;100.00;98311.88;105891;1254;67801;-74
2023/07/20 14:18:32;;;;;;;4.00;2.60;;;;;;;22.80;100.00;98313.90;105686;1257;73220;-73
2023/07/20 14:21:03;;;;;;;3.30;2.60;;;;;;;22.73;100.00;98317.56;105784;1257;60501;-74
2023/07/20 14:23:39;;;;;;;4.50;2.80;;;;;;;22.66;100.00;98317.96;105869;1255;60532;-74
2023/07/20 14:26:09;;;;;;;3.70;2.80;;;;;;;22.59;100.00;98318.54;105722;1257;72901;-75
2023/07/20 14:28:56;;;;;;;5.90;2.20;;;;;;;22.51;100.00;98319.11;105699;1257;68790;-74
2023/07/20 14:31:26;;;;;;;3.10;2.80;;;;;;;22.47;100.00;98314.02;105881;1255;71455;-76
2023/07/20 14:33:55;;;;;;;4.00;2.60;;;;;;;22.46;100.00;98318.03;105860;1255;60537;-75
2023/07/20 14:36:24;;;;;;;6.70;3.00;;;;;;;22.43;100.00;98319.02;105788;1257;60978;-74
2023/07/20 14:38:53;;;;;;;11.10;3.90;;;;;;;22.46;100.00;98319.17;105898;1259;73824;-74
2023/07/20 14:41:21;;;;;;;12.50;3.00;;;;;;;22.52;100.00;98319.27;105823;1257;67789;-74
2023/07/20 14:43:48;;;;;;;3.90;3.20;;;;;;;22.55;100.00;98317.41;105862;1257;71495;-74
2023/07/20 14:46:15;;;;;;;4.60;2.70;;;;;;;22.57;100.00;98317.41;105874;1257;60419;-74
2023/07/20 14:48:45;;;;;;;5.30;2.20;;;;;;;22.60;100.00;98315.77;105835;1257;60611;-73
2023/07/20 14:51:15;;;;;;;4.10;2.60;;;;;;;22.64;100.00;98322.09;105769;1260;73860;-73
2023/07/20 14:53:43;;;;;;;6.70;2.80;;;;;;;22.70;100.00;98321.80;105814;1257;67847;-75
2023/07/20 14:56:10;;;;;;;5.10;2.80;;;;;;;22.77;100.00;98323.18;105946;1254;72555;-75
2023/07/20 14:58:37;;;;;;;4.80;2.90;;;;;;;22.81;100.00;98318.18;105840;1256;60384;-73
2023/07/20 15:01:04;;;;;;;5.60;3.30;;;;;;;22.79;100.00;98321.55;105889;1255;60412;-73
2023/07/20 15:03:32;;;;;;;4.30;2.50;;;;;;;22.74;100.00;98326.66;105832;1257;73773;-74
2023/07/20 15:05:59;;;;;;;3.10;2.40;;;;;;;22.65;100.00;98331.19;105899;1257;67752;-73
2023/07/20 15:08:26;;;;;;;7.70;2.60;;;;;;;22.53;100.00;98339.64;105702;1258;72548;-73
2023/07/20 15:10:53;;;;;;;14.00;3.00;;;;;;;22.45;100.00;98337.60;105736;1257;60440;-75
2023/07/20 15:13:20;;;;;;;18.20;3.40;;;;;;;22.40;100.00;98333.87;105732;1252;60546;-73
2023/07/20 15:15:49;;;;;;;5.20;2.80;;;;;;;22.35;100.00;98333.13;105742;1258;73829;-74
2023/07/20 15:18:16;;;;;;;2.60;2.30;;;;;;;22.33;100.00;98331.02;105802;1254;67718;-73
2023/07/20 15:20:45;;;;;;;4.60;2.60;;;;;;;22.34;100.00;98335.56;105752;1257;73193;-74
2023/07/20 15:23:13;;;;;;;2.30;2.10;;;;;;;22.38;100.00;98340.59;105817;1257;60607;-73
2023/07/20 15:25:45;;;;;;;7.30;2.80;;;;;;;22.42;100.00;98344.33;105661;1257;60402;-77
2023/07/20 15:28:17;;;;;;;6.90;2.60;;;;;;;22.45;100.00;98341.29;105780;1254;72825;-74
2023/07/20 15:30:47;;;;;;;2.60;1.90;;;;;;;22.45;100.00;98336.35;105851;1254;67985;-73
2023/07/20 15:33:17;;;;;;;2.50;1.90;;;;;;;22.41;100.00;98347.52;105697;1256;72654;-74
2023/07/20 15:35:46;;;;;;;4.00;2.20;;;;;;;22.37;100.00;98350.63;105689;1253;62448;-74
2023/07/20 15:38:15;;;;;;;2.60;2.20;;;;;;;22.31;100.00;98357.18;105742;1254;60485;-74
2023/07/20 15:40:44;;;;;;;5.60;2.70;;;;;;;22.26;100.00;98357.52;105883;1256;73546;-74
2023/07/20 15:43:11;;;;;;;2.30;2.10;;;;;;;22.22;100.00;98364.29;105733;1257;67969;-75
2023/07/20 15:45:40;;;;;;;4.40;2.30;;;;;;;22.16;100.00;98364.40;105782;1254;72686;-76
2023/07/20 15:48:09;;;;;;;3.40;2.10;;;;;;;22.11;100.00;98365.05;105777;1253;60450;-73
2023/07/20 15:50:36;;;;;;;4.40;1.90;;;;;;;22.04;100.00;98363.70;105738;1257;60399;-73
2023/07/20 15:53:07;;;;;;;5.80;2.30;;;;;;;21.99;100.00;98372.73;105880;1257;73843;-74
2023/07/20 15:55:34;;;;;;;7.60;2.30;;;;;;;21.97;100.00;98379.39;105777;1257;67888;-74
2023/07/20 15:58:02;;;;;;;3.40;2.00;;;;;;;21.94;100.00;98381.51;105704;1257;72548;-73
2023/07/20 16:00:31;;;;;;;2.50;2.00;;;;;;;21.88;100.00;98385.57;105766;1254;60516;-73
2023/07/20 16:03:01;;;;;;;6.90;1.90;;;;;;;21.84;100.00;98385.64;106287;1253;60536;-73
2023/07/20 16:05:29;;;;;;;2.90;2.00;;;;;;;21.78;100.00;98389.25;106043;1258;72927;-73
2023/07/20 16:07:59;;;;;;;4.20;2.20;;;;;;;21.72;100.00;98390.11;105882;1257;67881;-73
2023/07/20 16:10:27;;;;;;;4.90;2.20;;;;;;;21.65;100.00;98390.14;105887;1257;73039;-75
2023/07/20 16:12:55;;;;;;;5.10;2.10;;;;;;;21.57;100.00;98391.60;105883;1256;60421;-72
2023/07/20 16:15:27;;;;;;;3.30;2.10;;;;;;;21.49;100.00;98394.27;105812;1257;60621;-71
2023/07/20 16:17:58;;;;;;;2.00;1.80;;;;;;;21.43;100.00;98390.85;105728;1257;73905;-71
2023/07/20 16:20:28;;;;;;;2.40;1.70;;;;;;;21.38;100.00;98392.08;105686;1257;68352;-71
2023/07/20 16:22:55;;;;;;;2.70;1.90;;;;;;;21.32;100.00;98390.81;105705;1257;71506;-71
2023/07/20 16:25:24;;;;;;;4.40;1.70;;;;;;;21.25;100.00;98387.98;105744;1257;60423;-70
2023/07/20 16:27:51;;;;;;;3.10;1.90;;;;;;;21.21;100.00;98390.73;105796;1257;60450;-72
2023/07/20 16:30:20;;;;;;;3.10;1.70;;;;;;;21.16;100.00;98390.96;105795;1257;73758;-73
2023/07/20 16:32:48;;;;;;;2.70;1.60;;;;;;;21.08;100.00;98398.92;105758;1266;66421;-73
2023/07/20 16:35:19;;;;;;;3.30;1.60;;;;;;;21.02;100.00;98405.30;105668;1253;72433;-72
2023/07/20 16:37:52;;;;;;;2.20;1.80;;;;;;;20.97;100.00;98408.16;105622;1255;60574;-73
2023/07/20 16:40:22;;;;;;;2.10;1.60;;;;;;;20.91;100.00;98407.86;105870;1255;60446;-72
2023/07/20 16:42:51;;;;;;;3.20;1.50;;;;;;;20.86;100.00;98418.20;105844;1256;74414;-72
2023/07/20 16:45:21;;;;;;;2.80;1.50;;;;;;;20.83;100.00;98421.80;105719;1257;67791;-71
2023/07/20 16:47:49;;;;;;;2.00;1.80;;;;;;;20.78;100.00;98422.76;105861;1255;72850;-71
2023/07/20 16:50:16;;;;;;;1.40;1.30;;;;;;;20.75;100.00;98426.79;105762;1266;60338;-75
2023/07/20 16:52:43;;;;;;;1.30;1.20;;;;;;;20.73;100.00;98430.39;105512;1255;60460;-75
2023/07/20 16:55:23;;;;;;;3.10;1.60;;;;;;;20.72;100.00;98430.77;105697;1260;73961;-71
2023/07/20 16:58:01;;;;;;;3.20;1.50;;;;;;;20.69;100.00;98427.77;105702;1252;66420;-74
2023/07/20 17:00:31;;;;;;;2.20;1.60;;;;;;;20.64;100.00;98424.92;105787;1257;72492;-72
2023/07/20 17:03:02;;;;;;;4.40;1.50;;;;;;;20.55;100.00;98425.69;105443;1262;61077;-73
2023/07/20 17:05:31;;;;;;;1.60;1.50;;;;;;;20.48;100.00;98425.45;105361;1263;60629;-74
2023/07/20 17:07:59;;;;;;;2.70;1.60;;;;;;;20.40;100.00;98424.70;105368;1257;76154;-73
2023/07/20 17:10:27;;;;;;;3.00;1.50;;;;;;;20.33;100.00;98424.81;105332;1263;67104;-74
2023/07/20 17:12:58;;;;;;;4.40;2.00;;;;;;;20.21;100.00;98426.46;105378;1261;72766;-74
2023/07/20 17:15:26;;;;;;;2.10;1.90;;;;;;;20.10;100.00;98429.33;105399;1263;63632;-74
2023/07/20 17:17:57;;;;;;;2.60;1.50;;;;;;;20.02;100.00;98430.88;105368;1262;60565;-74
2023/07/20 17:20:24;;;;;;;3.50;1.60;;;;;;;19.95;100.00;98431.02;105373;1258;74864;-75
2023/07/20 17:22:53;;;;;;;2.40;1.50;;;;;;;19.91;100.00;98431.80;105625;1262;67876;-67
2023/07/20 17:25:20;;;;;;;2.70;1.70;;;;;;;19.86;100.00;98429.86;105448;1258;72551;-73
2023/07/20 17:27:50;;;;;;;1.80;1.60;;;;;;;19.83;100.00;98436.47;105477;1261;60460;-73
2023/07/20 17:30:23;;;;;;;1.60;1.40;;;;;;;19.79;100.00;98437.56;106323;1262;60495;-76
2023/07/20 17:32:51;;;;;;;1.50;1.40;;;;;;;19.72;100.00;98439.86;106343;1262;74131;-73
2023/07/20 17:35:23;;;;;;;1.80;1.60;;;;;;;19.62;100.00;98439.32;105777;1256;66467;-73
2023/07/20 17:37:52;;;;;;;3.00;1.70;;;;;;;19.51;100.00;98443.79;105849;1256;72460;-60
2023/07/20 17:40:22;;;;;;;2.90;1.60;;;;;;;19.42;100.00;98443.84;105559;1265;60823;-61
2023/07/20 17:42:52;;;;;;;4.60;1.60;;;;;;;19.35;100.00;98443.84;105504;1257;60533;-62
2023/07/20 17:45:24;;;;;;;2.30;1.60;;;;;;;19.24;100.00;98445.02;105806;1257;73862;-74
2023/07/20 17:47:51;;;;;;;2.30;1.70;;;;;;;19.11;100.00;98448.31;106259;1256;67918;-76
2023/07/20 17:50:18;;;;;;;3.20;1.60;;;;;;;19.00;100.00;98453.02;107047;1254;72700;-74
2023/07/20 17:52:45;;;;;;;5.30;1.80;;;;;;;18.92;100.00;98454.20;105973;1256;60975;-72
2023/07/20 17:55:15;;;;;;;2.60;1.40;;;;;;;18.90;100.00;98458.38;105905;1256;60518;-73
2023/07/20 17:57:41;;;;;;;5.00;1.80;;;;;;;18.86;100.00;98462.38;105921;1257;73682;-75
2023/07/20 18:00:10;;;;;;;4.10;1.80;;;;;;;18.82;100.00;98468.02;105735;1254;66281;-73
2023/07/20 18:02:41;;;;;;;3.00;1.50;;;;;;;18.78;100.00;98466.56;105953;1254;72621;-72
2023/07/20 18:05:08;;;;;;;4.20;2.10;;;;;;;18.70;100.00;98472.21;105842;1252;60973;-71
2023/07/20 18:07:36;;;;;;;2.90;1.40;;;;;;;18.63;100.00;98470.48;105894;1259;61127;-73
2023/07/20 18:10:03;;;;;;;2.70;1.40;;;;;;;18.54;100.00;98475.14;105863;1256;73808;-73
2023/07/20 18:12:31;;;;;;;5.30;1.60;;;;;;;18.47;100.00;98480.34;105765;1256;67810;-72
2023/07/20 18:14:58;;;;;;;2.50;2.00;;;;;;;18.40;100.00;98480.21;105869;1256;72629;-71
2023/07/20 18:17:25;;;;;;;2.20;1.80;;;;;;;18.35;100.00;98485.56;105748;1257;60395;-73
2023/07/20 18:19:55;;;;;;;5.30;2.00;;;;;;;18.31;100.00;98490.88;105913;1255;60537;-73
2023/07/20 18:22:22;;;;;;;3.40;1.90;;;;;;;18.26;100.00;98495.05;106507;1253;74091;-73
2023/07/20 18:24:49;;;;;;;4.40;1.70;;;;;;;18.20;100.00;98500.04;105832;1264;66818;-74
2023/07/20 18:27:17;;;;;;;2.90;1.60;;;;;;;18.18;100.00;98499.46;105822;1254;72608;-74
2023/07/20 18:29:44;;;;;;;6.50;1.70;;;;;;;18.21;100.00;98497.91;105901;1254;60557;-72
2023/07/20 18:32:13;;;;;;;3.00;2.00;;;;;;;18.20;100.00;98504.25;105768;1254;60437;-74
2023/07/20 18:34:40;;;;;;;3.60;1.70;;;;;;;18.19;100.00;98508.96;105698;1253;73681;-73
2023/07/20 18:37:07;;;;;;;2.90;2.10;;;;;;;18.12;100.00;98510.45;105715;1254;67935;-74
2023/07/20 18:39:34;;;;;;;4.10;2.30;;;;;;;18.04;100.00;98508.48;105725;1255;72389;-73
2023/07/20 18:42:01;;;;;;;3.80;2.00;;;;;;;18.02;100.00;98510.48;105742;1257;61917;-73